createdAt,value
2023-02-22T00:03:32.370Z,11.67
2023-02-22T00:08:37.102Z,14.50
2023-02-22T00:30:48.280Z,4.40
2023-02-22T00:35:50.905Z,5.17
2023-02-22T00:40:53.281Z,6.70
2023-02-22T00:45:57.217Z,8.40
2023-02-22T00:51:00.563Z,5.33
2023-02-22T00:56:05.517Z,11.40
2023-02-22T01:01:07.872Z,5.70
2023-02-22T01:06:10.252Z,5.27
2023-02-22T01:11:13.406Z,4.33
2023-02-22T01:16:17.813Z,5.10
2023-02-22T01:21:20.535Z,5.50
2023-02-22T01:26:22.861Z,4.77
2023-02-22T01:31:25.550Z,5.30
2023-02-22T01:36:27.823Z,13.70
2023-02-22T01:41:30.128Z,21.67
2023-02-22T01:46:34.361Z,8.03
2023-02-22T01:51:47.573Z,5.00
2023-02-22T01:57:23.473Z,6.93
2023-02-22T02:02:27.095Z,4.80
2023-02-22T02:07:29.688Z,4.60
2023-02-22T02:12:35.904Z,6.70
2023-02-22T02:17:38.284Z,5.13
2023-02-22T02:23:27.591Z,27.20
2023-02-22T02:28:51.408Z,7.20
2023-02-22T02:34:20.335Z,8.03
2023-02-22T02:39:53.575Z,8.63
2023-02-22T02:45:12.799Z,10.57
2023-02-22T02:55:59.888Z,10.80
2023-02-22T03:01:33.447Z,9.80
2023-02-22T03:06:53.625Z,10.30
2023-02-22T03:12:27.694Z,23.23
2023-02-22T03:18:04.612Z,8.73
2023-02-22T03:23:44.555Z,14.33
2023-02-22T03:29:06.412Z,16.97
2023-02-22T03:34:15.005Z,12.53
2023-02-22T03:39:20.344Z,11.67
2023-02-22T03:44:46.272Z,15.77
2023-02-22T03:55:17.795Z,9.53
2023-02-22T04:00:24.033Z,8.17
2023-02-22T04:12:04.350Z,7.00
2023-02-22T04:17:14.764Z,7.13
2023-02-22T04:22:43.881Z,6.77
2023-02-22T04:27:46.564Z,10.70
2023-02-22T04:32:50.342Z,9.73
2023-02-22T04:37:56.224Z,10.37
2023-02-22T04:43:00.510Z,11.97
2023-02-22T04:48:21.344Z,10.33
2023-02-22T04:53:42.610Z,9.87
2023-02-22T04:58:45.096Z,7.40
2023-02-22T05:03:47.538Z,9.30
2023-02-22T05:08:49.863Z,8.50
2023-02-22T05:14:10.760Z,8.73
2023-02-22T05:19:15.005Z,9.07
2023-02-22T05:24:19.199Z,17.47
2023-02-22T05:29:21.560Z,27.87
2023-02-22T05:34:24.039Z,31.70
2023-02-22T05:39:26.543Z,28.73
2023-02-22T05:49:48.384Z,41.70
2023-02-22T05:54:50.828Z,28.67
2023-02-22T05:59:53.210Z,30.40
2023-02-22T06:16:14.409Z,27.63
2023-02-22T06:21:18.319Z,34.17
2023-02-22T06:26:20.869Z,37.93
2023-02-22T06:31:24.147Z,43.13
2023-02-22T06:36:26.424Z,35.20
2023-02-22T06:41:29.025Z,29.77
2023-02-22T06:52:10.213Z,25.37
2023-02-22T06:57:12.475Z,23.37
2023-02-22T07:02:52.371Z,30.93
2023-02-22T07:08:02.677Z,43.70
2023-02-22T07:13:07.030Z,37.13
2023-02-22T07:18:29.442Z,35.43
2023-02-22T07:23:33.195Z,26.40
2023-02-22T07:28:35.920Z,15.00
2023-02-22T07:33:38.150Z,13.87
2023-02-22T07:38:59.258Z,12.87
2023-02-22T07:44:01.577Z,12.20
2023-02-22T07:54:23.854Z,14.67
2023-02-22T07:59:46.213Z,15.50
2023-02-22T08:04:50.179Z,16.37
2023-02-22T08:10:13.365Z,15.80
2023-02-22T08:20:40.607Z,12.23
2023-02-22T08:25:42.938Z,12.83
2023-02-22T08:30:45.829Z,15.77
2023-02-22T08:35:49.815Z,14.70
2023-02-22T08:40:52.366Z,17.00
2023-02-22T08:46:14.330Z,12.40
2023-02-22T08:51:16.996Z,21.53
2023-02-22T08:56:38.537Z,11.63
2023-02-22T09:01:40.910Z,14.83
2023-02-22T09:06:48.300Z,12.87
2023-02-22T09:12:09.731Z,14.10
2023-02-22T09:17:12.527Z,32.73
2023-02-22T09:22:14.864Z,42.23
2023-02-22T09:27:35.725Z,25.97
2023-02-22T09:32:38.851Z,14.40
2023-02-22T09:43:42.066Z,14.20
2023-02-22T09:54:44.059Z,34.77
2023-02-22T10:00:16.808Z,28.63
2023-02-22T10:05:37.907Z,20.00
2023-02-22T10:10:46.112Z,21.17
2023-02-22T10:16:13.147Z,12.47
2023-02-22T10:21:41.875Z,10.67
2023-02-22T10:32:35.478Z,33.00
2023-02-22T10:37:38.376Z,35.33
2023-02-22T10:42:41.456Z,14.90
2023-02-22T10:47:43.985Z,20.57
2023-02-22T10:53:04.886Z,10.57
2023-02-22T10:58:08.869Z,7.40
2023-02-22T11:03:23.735Z,9.40
2023-02-22T11:08:32.962Z,5.30
2023-02-22T11:19:24.286Z,9.77
2023-02-22T11:24:32.566Z,12.27
2023-02-22T11:30:04.428Z,16.17
2023-02-22T11:35:33.327Z,11.73
2023-02-22T11:40:57.852Z,7.20
2023-02-22T11:52:03.266Z,4.70
2023-02-22T11:57:29.986Z,6.53
2023-02-22T12:02:57.338Z,5.80
2023-02-22T12:08:37.463Z,3.83
2023-02-22T12:13:58.573Z,3.93
2023-02-22T12:19:43.335Z,4.67
2023-02-22T12:25:24.250Z,8.20
2023-02-22T12:30:32.993Z,7.20
2023-02-22T12:35:42.850Z,4.20
2023-02-22T12:40:54.641Z,2.30
2023-02-22T12:46:21.732Z,2.13
2023-02-22T12:51:49.697Z,2.60
2023-02-22T12:57:20.055Z,2.53
2023-02-22T13:02:25.096Z,2.37
2023-02-22T13:08:02.705Z,3.70
2023-02-22T13:13:47.242Z,2.60
2023-02-22T13:19:35.694Z,2.87
2023-02-22T13:25:03.075Z,2.60
2023-02-22T13:30:13.928Z,3.97
2023-02-22T13:35:35.494Z,6.73
2023-02-22T13:40:52.914Z,3.00
2023-02-22T13:51:20.660Z,4.23
2023-02-22T13:56:46.243Z,5.20
2023-02-22T14:02:14.004Z,4.13
2023-02-22T14:07:21.913Z,3.93
2023-02-22T14:12:30.122Z,6.73
2023-02-22T14:17:58.043Z,10.30
2023-02-22T14:23:29.842Z,7.40
2023-02-22T14:28:53.538Z,13.90
2023-02-22T14:34:01.099Z,8.70
2023-02-22T14:39:34.342Z,6.30
2023-02-22T14:45:03.699Z,5.10
2023-02-22T14:50:14.870Z,7.00
2023-02-22T14:55:25.083Z,4.33
2023-02-22T15:06:14.892Z,7.10
2023-02-22T15:11:36.042Z,8.83
2023-02-22T15:16:44.147Z,8.00
2023-02-22T15:21:46.743Z,7.22
2023-02-22T15:27:07.805Z,5.03
2023-02-22T15:32:31.293Z,5.80
2023-02-22T15:37:33.719Z,5.90
2023-02-22T15:53:42.004Z,6.57
2023-02-22T15:58:47.126Z,9.70
2023-02-22T16:04:20.434Z,10.87
2023-02-22T16:09:30.281Z,11.43
2023-02-22T16:14:54.267Z,12.70
2023-02-22T16:20:01.408Z,12.57
2023-02-22T16:25:24.735Z,12.43
2023-02-22T16:30:49.447Z,12.43
2023-02-22T16:36:10.685Z,12.30
2023-02-22T16:41:16.157Z,14.53
2023-02-22T16:46:37.972Z,18.53
2023-02-22T16:51:47.431Z,17.47
2023-02-22T16:56:49.869Z,13.90
2023-02-22T17:07:11.718Z,16.53
2023-02-22T17:12:32.609Z,21.03
2023-02-22T17:17:35.843Z,23.07
2023-02-22T17:22:38.681Z,18.53
2023-02-22T17:27:40.984Z,15.23
2023-02-22T17:32:43.672Z,14.93
2023-02-22T17:37:47.878Z,18.93
2023-02-22T17:42:55.019Z,19.10
2023-02-22T17:47:59.166Z,20.70
2023-02-22T17:53:01.942Z,24.67
2023-02-22T17:58:04.889Z,17.93
2023-02-22T18:03:10.821Z,16.63
2023-02-22T18:08:14.362Z,16.87
2023-02-22T18:13:18.705Z,19.80
2023-02-22T18:18:22.187Z,20.83
2023-02-22T18:23:27.865Z,16.13
2023-02-22T18:33:52.162Z,16.23
2023-02-22T18:39:13.473Z,19.50
2023-02-22T18:44:16.225Z,28.13
2023-02-22T18:49:37.177Z,18.73
2023-02-22T18:54:40.467Z,40.93
2023-02-22T19:05:25.453Z,55.80
2023-02-22T19:10:29.098Z,41.10
2023-02-22T19:15:31.373Z,22.27
2023-02-22T19:20:33.782Z,17.67
2023-02-22T19:25:41.173Z,22.37
2023-02-22T19:30:43.593Z,81.73
2023-02-22T19:35:48.438Z,69.13
2023-02-22T19:41:36.045Z,25.43
2023-02-22T19:46:57.099Z,39.17
2023-02-22T19:51:59.477Z,24.63
2023-02-22T19:57:20.249Z,19.07
2023-02-22T20:02:27.462Z,25.20
2023-02-22T20:07:51.612Z,16.60
2023-02-22T20:12:53.941Z,49.07
2023-02-22T20:17:57.912Z,16.50
2023-02-22T20:23:00.325Z,15.50
2023-02-22T20:33:41.798Z,17.47
2023-02-22T20:39:07.490Z,15.40
2023-02-22T20:44:13.646Z,16.07
2023-02-22T20:49:18.733Z,16.67
2023-02-22T20:54:22.189Z,18.63
2023-02-22T20:59:24.563Z,14.07
2023-02-22T21:04:45.561Z,41.93
2023-02-22T21:09:49.442Z,53.33
2023-02-22T21:15:12.041Z,41.27
2023-02-22T21:20:32.998Z,18.87
2023-02-22T21:25:36.937Z,17.07
2023-02-22T21:30:39.337Z,22.00
2023-02-22T21:36:19.781Z,12.63
2023-02-22T21:41:26.048Z,14.17
2023-02-22T21:46:52.032Z,12.50
2023-02-22T21:51:54.390Z,12.33
2023-02-22T21:56:59.725Z,11.60
2023-02-22T22:07:59.624Z,12.37
2023-02-22T22:13:20.581Z,11.43
2023-02-22T22:18:22.908Z,15.50
2023-02-22T22:28:51.926Z,9.97
2023-02-22T22:34:31.107Z,10.03
2023-02-22T22:39:34.221Z,11.83
2023-02-22T22:44:54.801Z,8.97
2023-02-22T22:50:01.381Z,8.63
2023-02-22T22:55:03.998Z,8.80
2023-02-22T23:00:30.085Z,7.67
2023-02-22T23:05:37.893Z,8.73
2023-02-22T23:10:42.240Z,7.80
2023-02-22T23:16:03.960Z,7.80
2023-02-22T23:21:25.126Z,7.80
2023-02-22T23:26:27.576Z,8.57
2023-02-22T23:32:14.214Z,7.80
2023-02-22T23:37:19.227Z,8.30
2023-02-22T23:42:23.068Z,8.90
2023-02-22T23:47:31.671Z,7.03
2023-02-22T23:52:34.055Z,12.33
